• Join FlightAware (Why Join?)
  • Login
  • US Flag 
04:14AM EDT


 

Airport Tracker/Info


-or-


 

Live Flight TrackerFlight Track Log ✈ N9004F ✈ 29-Oct-2013 ✈ KHSV - KDFW

Flight Track Log - Related Links

Times and Time Zones

All times are in EDT time to prevent confusion due to time zone crossing. See the N9004F flight status page for this flight to view local times or setup timezone preferences in your user account.

Time Position Orientation Groundspeed Altitude Reporting Facility
EDT Latitude Longitude Course Direction KTS MPH feet Rate Location/Type
06:00PM 34.6011 -86.9283 282° West 196 226 8,600  Level Memphis Center
06:01PM 34.6139 -87.0211 280° West 236 272 11,700 2,460 Climbing Memphis Center
06:02PM 34.6233 -87.1367 276° West 326 375 13,600 2,460 Climbing Memphis Center
06:03PM 34.6286 -87.2603 273° West 348 400 16,700 2,700 Climbing Memphis Center
06:04PM 34.6294 -87.3764 271° West 383 441 19,100 2,340 Climbing Memphis Center
06:05PM 34.6344 -87.5075 273° West 383 441 21,400 1,620 Climbing Memphis Center
06:11PM 34.6560 -88.3320 273° West 418 481 30,000 1,260 Climbing FlightAware
06:11PM 34.6580 -88.4480 271° West 414 476 30,000  Level FlightAware
06:12PM 34.6590 -88.4990 271° West 414 476 30,000 -120 Level FlightAware
06:13PM 34.6620 -88.6360 272° West 420 483 29,900  Descending FlightAware
06:13PM 34.6630 -88.7140 271° West 422 486 30,000 60 Climbing FlightAware
06:14PM 34.6650 -88.7910 272° West 422 486 30,000  Level FlightAware
06:14PM 34.6650 -88.8390 270° West 422 486 30,000  Level FlightAware
06:15PM 34.6680 -88.9640 272° West 422 486 30,000  Level FlightAware
06:16PM 34.6710 -89.1420 271° West 421 484 30,000  Level FlightAware
06:17PM 34.6710 -89.2460 270° West 421 484 30,000  Level FlightAware
06:18PM 34.6710 -89.3430 270° West 421 484 30,000  Level FlightAware
06:19PM 34.6710 -89.4170 270° West 421 484 30,000  Level FlightAware
06:20PM 34.6710 -89.5380 270° West 421 484 30,000  Level FlightAware
06:20PM 34.6710 -89.5860 270° West 421 484 30,000  Level FlightAware
06:21PM 34.6710 -89.7070 270° West 421 484 30,000  Level FlightAware
06:22PM 34.6800 -89.9330 273° West 424 488 30,000  Level FlightAware
06:23PM 34.6810 -90.0460 271° West 424 488 30,000  Level FlightAware
06:24PM 34.6820 -90.1770 271° West 424 488 30,000  Level FlightAware
06:25PM 34.6820 -90.3010 270° West 424 488 30,000  Level FlightAware
06:25PM 34.6830 -90.3850 271° West 423 487 30,000  Level FlightAware
06:26PM 34.6830 -90.4840 270° West 423 487 30,000  Level FlightAware
06:26PM 34.6830 -90.5780 270° West 425 489 30,000  Level FlightAware
06:27PM 34.6840 -90.7070 271° West 426 490 30,000  Level FlightAware
06:28PM 34.6840 -90.8160 270° West 426 490 30,000  Level FlightAware
06:29PM 34.6840 -90.9190 270° West 425 489 30,000  Level FlightAware
06:30PM 34.6840 -91.0390 270° West 424 488 30,000  Level FlightAware
06:31PM 34.6840 -91.1730 270° West 424 488 30,000  Level FlightAware
06:31PM 34.6830 -91.2960 269° West 425 489 30,000  Level FlightAware
06:32PM 34.6830 -91.3920 270° West 426 490 30,000  Level FlightAware
06:33PM 34.6830 -91.4870 270° West 427 491 30,000  Level FlightAware
06:34PM 34.6820 -91.6120 269° West 427 491 30,000  Level FlightAware
06:34PM 34.6810 -91.7270 269° West 427 491 30,000  Level FlightAware
06:35PM 34.6810 -91.8610 270° West 427 491 30,000  Level FlightAware
06:36PM 34.6800 -91.9380 269° West 426 490 30,000  Level FlightAware
06:37PM 34.6790 -92.0800 270° West 425 489 30,000  Level FlightAware
06:37PM 34.6750 -92.1510 266° West 424 488 30,000  Level FlightAware
06:38PM 34.6660 -92.2180 261° West 424 488 30,000  Level FlightAware
06:38PM 34.6470 -92.2950 253° West 426 490 30,000  Level FlightAware
06:39PM 34.6200 -92.3990 253° West 423 487 30,000  Level FlightAware
06:40PM 34.5910 -92.5120 253° West 424 488 30,000  Level FlightAware
06:41PM 34.5570 -92.6390 252° West 424 488 30,000  Level FlightAware
06:42PM 34.5370 -92.7130 252° West 424 488 30,000  Level FlightAware
06:42PM 34.5060 -92.8310 252° West 425 489 30,000  Level FlightAware
06:43PM 34.4770 -92.9370 252° West 427 491 30,000  Level FlightAware
06:44PM 34.4420 -93.0700 252° West 429 494 30,000  Level FlightAware
06:45PM 34.4200 -93.1470 251° West 428 493 30,000  Level FlightAware
06:46PM 34.4350 -93.0930 71° East 428 493 30,000  Level FlightAware
06:48PM 34.3130 -93.5400 252° West 425 489 30,000  Level FlightAware
06:48PM 34.2920 -93.6170 252° West 424 488 30,000  Level FlightAware
06:49PM 34.2640 -93.7160 251° West 424 488 30,000  Level FlightAware
06:50PM 34.2360 -93.8530 256° West 431 496 30,000  Level FlightAware
06:51PM 34.2500 -93.9420 281° West 437 503 30,000  Level FlightAware
06:51PM 34.2700 -94.0290 286° West 435 501 30,000  Level FlightAware
06:52PM 34.2870 -94.1050 285° West 435 501 30,000  Level FlightAware
06:53PM 34.3120 -94.2580 281° West 428 493 30,000  Level FlightAware
06:54PM 34.3270 -94.3710 279° West 427 491 30,000 -240 Level FlightAware
06:54PM 34.3430 -94.4880 279° West 425 489 29,700 -660 Descending FlightAware
06:55PM 34.3310 -94.5600 259° West 420 483 29,200 -960 Descending FlightAware
06:56PM 34.2760 -94.6820 241° Southwest 425 489 28,300 -1,020 Descending FlightAware
06:57PM 34.2380 -94.7670 242° Southwest 417 480 27,600 -1,860 Descending FlightAware
06:57PM 34.2260 -94.8330 258° West 408 470 26,100 -3,000 Descending FlightAware
06:58PM 34.2410 -94.9200 282° West 417 480 24,200 -1,620 Descending FlightAware
06:58PM 34.2780 -95.0030 298° West 418 481 24,000 -180 Descending FlightAware
06:59PM 34.3150 -95.0860 298° West 416 479 24,000  Level FlightAware
07:00PM 34.3640 -95.1920 299° West 414 476 24,000  Level FlightAware
07:01PM 34.3830 -95.2760 285° West 398 458 24,000  Level FlightAware
07:02PM 34.3830 -95.3770 270° West 398 458 24,000  Level FlightAware
07:02PM 34.3830 -95.4450 270° West 398 458 24,000  Level FlightAware
07:03PM 34.2450 -95.4790 192° South 397 457 24,000  Level FlightAware
07:03PM 34.2030 -95.5250 222° Southwest 397 457 24,000  Level FlightAware
07:04PM 34.1760 -95.5540 222° Southwest 397 457 24,000  Level FlightAware
07:05PM 34.1330 -95.6010 222° Southwest 397 457 24,000  Level FlightAware
07:05PM 34.1040 -95.6330 222° Southwest 397 457 24,000 -1,920 Level FlightAware
07:06PM 33.9710 -95.7740 221° Southwest 385 443 21,600 -1,980 Descending FlightAware
07:07PM 33.9010 -95.8490 222° Southwest 385 443 20,700 -1,080 Descending FlightAware
07:08PM 33.8230 -95.9320 221° Southwest 382 440 19,700 -1,020 Descending FlightAware
07:09PM 33.7470 -96.0120 221° Southwest 385 443 18,800 -1,020 Descending FlightAware
07:10PM 33.6720 -96.0920 222° Southwest 384 442 17,800 -1,320 Descending FlightAware
07:10PM 33.6250 -96.1420 222° Southwest 383 441 16,800 -2,220 Descending FlightAware
07:11PM 33.5720 -96.1970 221° Southwest 380 437 15,000 -2,700 Descending FlightAware
07:12PM 33.5140 -96.2620 223° Southwest 371 427 13,000 -2,220 Descending FlightAware
07:12PM 33.4640 -96.3220 225° Southwest 340 391 11,800 -1,380 Descending FlightAware
07:13PM 33.4330 -96.3590 225° Southwest 313 360 11,400 -840 Descending FlightAware
07:13PM 33.4030 -96.3940 224° Southwest 289 333 11,000 -780 Descending FlightAware
07:14PM 33.3750 -96.4490 239° Southwest 269 310 10,500 -900 Descending FlightAware
07:15PM 33.3630 -96.4810 246° West 259 298 10,000 -1,620 Descending FlightAware
07:15PM 33.3520 -96.5090 245° Southwest 266 306 9,300 -1,680 Descending FlightAware
07:15PM 33.3405 -96.5380 245° Southwest 269 310 8,700 -1,680 Descending FlightAware ADS-B (KAFW)
07:16PM 33.3321 -96.5598 245° Southwest 268 308 8,100 -1,800 Descending FlightAware ADS-B (KAFW)
07:16PM 33.3216 -96.5864 245° Southwest 267 307 7,600 -1,740 Descending FlightAware ADS-B (KAFW)
07:17PM 33.3030 -96.6370 246° West 259 298 6,600 -1,740 Descending FlightAware
07:17PM 33.2900 -96.6720 246° West 253 291 5,900 -1,440 Descending FlightAware
07:18PM 33.2710 -96.7260 247° West 247 284 5,000 -780 Descending FlightAware
07:18PM 33.2550 -96.7710 247° West 251 289 4,900 -120 Descending FlightAware
07:19PM 33.2493 -96.7857 245° Southwest 251 289 4,900  Level FlightAware ADS-B (KAFW)
07:19PM 33.2391 -96.8139 247° West 238 274 4,900  Level FlightAware ADS-B (KAFW)
07:19PM 33.2336 -96.8295 247° West 232 267 4,900  Level FlightAware ADS-B (KAFW)
07:19PM 33.2249 -96.8542 247° West 229 264 4,900  Level FlightAware ADS-B (KAFW)
07:20PM 33.2030 -96.9150 247° West 228 262 4,900  Level FlightAware
07:21PM 33.1916 -96.9484 248° West 228 262 4,900  Level FlightAware ADS-B (KAFW)
07:21PM 33.1867 -96.9730 257° West 219 252 4,900  Level FlightAware ADS-B (KAFW)
07:22PM 33.1798 -97.0036 255° West 192 221 4,900  Level FlightAware ADS-B (KAFW)
07:22PM 33.1741 -97.0103 225° Southwest 183 211 4,900  Level FlightAware ADS-B (KAFW)
07:22PM 33.1588 -97.0188 205° Southwest 185 213 4,900 -180 Level FlightAware ADS-B (KAFW)
07:22PM 33.1425 -97.0237 194° South 179 206 4,800 -600 Descending FlightAware ADS-B (KAFW)
07:23PM 33.1256 -97.0247 183° South 175 201 4,500 -1,080 Descending FlightAware ADS-B (KAFW)
07:23PM 33.1089 -97.0249 181° South 172 198 4,100 -1,080 Descending FlightAware ADS-B (KAFW)
07:24PM 33.0933 -97.0250 180° South 168 193 3,800 -900 Descending FlightAware ADS-B (KAFW)
07:24PM 33.0872 -97.0251 181° South 168 193 3,700 -900 Descending FlightAware ADS-B (KAFW)
07:24PM 33.0768 -97.0251 180° South 166 191 3,500 -900 Descending FlightAware ADS-B (KAFW)
07:24PM 33.0707 -97.0252 181° South 166 191 3,400 -900 Descending FlightAware ADS-B (KAFW)
07:24PM 33.0614 -97.0252 180° South 166 191 3,200 -900 Descending FlightAware ADS-B (KAFW)
07:24PM 33.0552 -97.0252 180° South 166 191 3,100 -720 Descending FlightAware ADS-B (KAFW)
07:24PM 33.0486 -97.0253 181° South 165 190 3,000 -840 Descending FlightAware ADS-B (KAFW)
07:25PM 33.0337 -97.0253 180° South 161 185 2,700 -900 Descending FlightAware ADS-B (KAFW)
07:25PM 33.0182 -97.0254 180° South 152 175 2,400 -780 Descending FlightAware ADS-B (KAFW)
07:25PM 33.0088 -97.0255 181° South 136 157 2,300 -780 Descending FlightAware ADS-B (KAFW)
07:26PM 32.9979 -97.0256 180° South 126 145 2,000 -780 Descending FlightAware ADS-B (KAFW)
07:26PM 32.9909 -97.0255 179° South 121 139 1,800 -480 Descending FlightAware ADS-B (KAFW)
07:26PM 32.9818 -97.0256 181° South 121 139 1,800 -720 Level FlightAware ADS-B (KAFW)
07:27PM 32.9590 -97.0260 181° South 119 137 1,300 -540 Descending FlightAware
07:27PM 32.9470 -97.0260 180° South 119 137 1,300  Level FlightAware